Time;durP1;ratioP1;P1;durP2;ratioP2;P2;SDS_P1;SDS_P2;PMS_P1;PMS_P2;Temp;Humidity;BMP_temperature;BMP_pressure;BME280_temperature;BME280_humidity;BME280_pressure;Samples;Min_cycle;Max_cycle;Signal;HPM_P1;HPM_P2
2023/03/21 00:00:33;;;;;;;12.38;7.68;;;11.00;99.90;;;;;;5053260;28;20171;-59
2023/03/21 00:02:59;;;;;;;10.68;7.47;;;11.00;99.90;;;;;;5053183;28;20536;-60
2023/03/21 00:05:25;;;;;;;10.27;7.13;;;11.10;99.90;;;;;;5053003;28;20187;-59
2023/03/21 00:07:50;;;;;;;9.93;7.55;;;11.10;99.90;;;;;;5052954;28;20203;-60
2023/03/21 00:10:16;;;;;;;13.52;7.20;;;11.00;99.90;;;;;;5053287;28;20172;-59
2023/03/21 00:12:42;;;;;;;10.98;6.65;;;11.00;99.90;;;;;;5053216;28;20225;-59
2023/03/21 00:15:09;;;;;;;9.65;6.38;;;11.00;99.90;;;;;;5053143;28;20268;-59
2023/03/21 00:17:35;;;;;;;11.77;7.10;;;11.10;99.90;;;;;;5053003;28;20179;-59
2023/03/21 00:20:05;;;;;;;9.88;6.50;;;11.10;99.90;;;;;;5053021;28;20540;-60
2023/03/21 00:22:34;;;;;;;8.85;6.32;;;11.00;99.90;;;;;;5052689;28;20536;-59
2023/03/21 00:25:00;;;;;;;9.32;6.32;;;10.90;99.90;;;;;;5053206;28;20198;-59
2023/03/21 00:27:26;;;;;;;10.57;6.05;;;11.00;99.90;;;;;;5053012;28;20207;-59
2023/03/21 00:29:52;;;;;;;8.65;6.22;;;11.00;99.90;;;;;;5052958;28;20175;-60
2023/03/21 00:32:20;;;;;;;10.18;6.47;;;11.00;99.90;;;;;;5052950;28;20510;-59
2023/03/21 00:34:46;;;;;;;8.98;6.07;;;11.00;99.90;;;;;;5052800;28;20703;-59
2023/03/21 00:37:15;;;;;;;9.38;6.80;;;11.00;99.90;;;;;;5053039;28;20236;-60
2023/03/21 00:39:42;;;;;;;7.30;6.28;;;11.00;99.90;;;;;;5052915;28;20184;-59
2023/03/21 00:42:08;;;;;;;9.45;6.32;;;11.00;99.90;;;;;;5052940;28;20176;-59
2023/03/21 00:44:35;;;;;;;11.77;6.75;;;11.00;99.90;;;;;;5052730;28;20182;-59
2023/03/21 00:47:05;;;;;;;9.57;6.68;;;11.10;99.90;;;;;;5052730;28;20195;-60
2023/03/21 00:49:34;;;;;;;9.15;6.85;;;11.10;99.90;;;;;;5052637;28;20171;-59
2023/03/21 00:52:00;;;;;;;8.98;6.03;;;11.10;99.90;;;;;;5053227;28;20179;-59
2023/03/21 00:54:26;;;;;;;12.32;7.15;;;11.10;99.90;;;;;;5052790;28;20179;-60
2023/03/21 00:56:52;;;;;;;10.65;6.05;;;11.10;99.90;;;;;;5052762;28;20532;-60
2023/03/21 00:59:18;;;;;;;10.80;6.68;;;11.10;99.90;;;;;;5052776;28;20214;-59
2023/03/21 01:01:45;;;;;;;8.77;6.05;;;11.10;99.90;;;;;;5052681;28;20666;-59
2023/03/21 01:04:13;;;;;;;9.90;6.07;;;11.10;99.90;;;;;;5052472;28;20176;-59
2023/03/21 01:06:40;;;;;;;9.18;6.50;;;11.10;99.90;;;;;;5052349;28;20628;-60
2023/03/21 01:09:11;;;;;;;10.73;6.55;;;11.10;99.90;;;;;;5052664;28;20802;-59
2023/03/21 01:11:36;;;;;;;11.95;6.70;;;11.10;99.90;;;;;;5052735;28;20250;-59
2023/03/21 01:14:02;;;;;;;8.98;6.20;;;11.10;99.90;;;;;;5052429;28;20270;-59
2023/03/21 01:16:28;;;;;;;10.10;6.40;;;11.10;99.90;;;;;;5052362;28;20180;-59
2023/03/21 01:18:55;;;;;;;11.38;6.82;;;11.10;99.90;;;;;;5052370;28;20175;-60
2023/03/21 01:21:20;;;;;;;9.07;6.63;;;11.10;99.90;;;;;;5052605;28;20168;-59
2023/03/21 01:23:47;;;;;;;9.52;6.25;;;11.20;99.90;;;;;;5052325;28;20231;-59
2023/03/21 01:26:14;;;;;;;10.77;6.50;;;11.10;99.90;;;;;;5055260;28;20202;-59
2023/03/21 01:28:41;;;;;;;10.07;6.45;;;11.10;99.90;;;;;;5055990;28;20202;-60
2023/03/21 01:31:07;;;;;;;10.63;6.57;;;11.10;99.90;;;;;;5054716;28;20536;-60
2023/03/21 01:33:34;;;;;;;11.80;6.75;;;11.10;99.90;;;;;;5055968;28;20522;-59
2023/03/21 01:36:00;;;;;;;10.50;6.70;;;11.10;99.90;;;;;;5055968;28;20217;-59
2023/03/21 01:38:26;;;;;;;11.00;6.70;;;11.10;99.90;;;;;;5055716;28;20261;-60
2023/03/21 01:40:52;;;;;;;11.88;6.97;;;11.10;99.90;;;;;;5055905;28;20655;-59
2023/03/21 01:43:27;;;;;;;10.57;6.75;;;11.10;99.90;;;;;;5055698;28;20183;-60
2023/03/21 01:46:20;;;;;;;9.35;6.05;;;11.10;99.90;;;;;;5055554;28;20182;-59
2023/03/21 01:48:53;;;;;;;10.48;6.15;;;11.10;99.90;;;;;;5055659;28;20290;-59
2023/03/21 01:51:21;;;;;;;10.30;6.80;;;11.10;99.90;;;;;;5055674;28;20163;-59
2023/03/21 01:53:50;;;;;;;9.88;6.30;;;11.00;99.90;;;;;;5055570;28;20639;-59
2023/03/21 01:56:23;;;;;;;10.50;6.78;;;11.00;99.90;;;;;;5055374;28;20179;-59
2023/03/21 01:58:51;;;;;;;8.93;6.28;;;11.00;99.90;;;;;;5055651;28;20179;-59
2023/03/21 02:01:17;;;;;;;11.55;6.78;;;11.00;99.90;;;;;;5055528;28;20163;-59
2023/03/21 02:03:49;;;;;;;12.60;6.30;;;11.00;99.90;;;;;;5054188;28;20185;-59
2023/03/21 02:06:29;;;;;;;9.70;6.13;;;10.90;99.90;;;;;;5055317;28;20229;-59
2023/03/21 02:08:56;;;;;;;11.35;6.03;;;11.00;99.90;;;;;;5055068;28;20215;-59
2023/03/21 02:11:22;;;;;;;13.25;6.22;;;11.00;99.90;;;;;;5055172;28;20525;-59
2023/03/21 02:13:48;;;;;;;9.68;6.10;;;11.10;99.90;;;;;;5055225;28;20187;-60
2023/03/21 02:16:39;;;;;;;9.05;6.05;;;11.00;99.90;;;;;;5055150;28;20167;-59
2023/03/21 02:19:27;;;;;;;9.32;5.47;;;11.00;99.90;;;;;;5053709;28;20532;-59
2023/03/21 02:22:11;;;;;;;10.32;5.97;;;11.00;99.90;;;;;;5055102;28;20540;-59
2023/03/21 02:24:53;;;;;;;10.63;5.88;;;11.00;99.90;;;;;;5054993;28;20721;-59
2023/03/21 02:27:23;;;;;;;8.27;5.93;;;11.00;99.90;;;;;;5054831;28;20202;-60
2023/03/21 02:30:03;;;;;;;10.77;6.13;;;10.90;99.90;;;;;;5054792;28;20167;-60
2023/03/21 02:32:48;;;;;;;9.68;5.43;;;10.90;99.90;;;;;;5054974;28;20174;-59
2023/03/21 02:35:25;;;;;;;8.98;5.32;;;10.90;99.90;;;;;;5054869;28;20527;-60
2023/03/21 02:38:18;;;;;;;9.30;5.95;;;10.80;99.90;;;;;;5053676;28;20179;-59
2023/03/21 02:41:05;;;;;;;8.52;5.22;;;10.80;99.90;;;;;;5050097;28;20664;-59
2023/03/21 02:43:55;;;;;;;7.07;4.93;;;10.70;99.90;;;;;;5054718;28;20168;-59
2023/03/21 02:46:49;;;;;;;9.63;6.00;;;10.70;99.90;;;;;;5054463;28;20178;-59
2023/03/21 02:49:27;;;;;;;9.98;5.55;;;10.70;99.90;;;;;;5054474;28;20713;-59
2023/03/21 02:51:57;;;;;;;9.55;5.63;;;10.70;99.90;;;;;;5053329;28;20185;-60
2023/03/21 02:54:23;;;;;;;10.35;5.93;;;10.70;99.90;;;;;;5054334;28;20167;-59
2023/03/21 02:56:52;;;;;;;10.05;5.75;;;10.70;99.90;;;;;;5054249;28;20230;-60
2023/03/21 02:59:21;;;;;;;12.40;5.90;;;10.70;99.90;;;;;;5054462;28;20174;-59
2023/03/21 03:01:48;;;;;;;11.95;5.68;;;10.70;99.90;;;;;;5054291;28;20175;-59
2023/03/21 03:04:23;;;;;;;9.45;6.05;;;10.70;99.90;;;;;;5054248;28;20175;-60
2023/03/21 03:06:59;;;;;;;10.88;6.13;;;10.70;99.90;;;;;;5053996;28;20233;-59
2023/03/21 03:10:23;;;;;;;9.05;5.90;;;10.90;99.90;;;;;;5053974;28;20179;-60
2023/03/21 03:13:08;;;;;;;10.45;6.25;;;10.90;99.90;;;;;;5031041;28;20536;-60
2023/03/21 03:16:01;;;;;;;12.75;6.43;;;10.90;99.90;;;;;;5054171;28;20176;-60
2023/03/21 03:18:44;;;;;;;10.23;6.47;;;10.90;99.90;;;;;;5054117;28;20198;-59
2023/03/21 03:21:41;;;;;;;11.35;6.72;;;10.80;99.90;;;;;;5053958;28;20167;-59
2023/03/21 03:24:24;;;;;;;10.68;6.57;;;10.90;99.90;;;;;;5052751;28;20256;-59
2023/03/21 03:26:56;;;;;;;13.05;6.72;;;10.90;99.90;;;;;;5053845;28;20250;-59
2023/03/21 03:29:27;;;;;;;11.40;7.25;;;10.90;99.90;;;;;;5053817;28;20168;-59
2023/03/21 03:32:05;;;;;;;14.63;6.93;;;10.90;99.90;;;;;;5053781;28;20168;-59
2023/03/21 03:34:38;;;;;;;12.27;6.20;;;11.00;99.90;;;;;;5053873;28;20170;-59
2023/03/21 03:37:07;;;;;;;8.43;5.47;;;11.00;99.90;;;;;;5053443;28;20233;-59
2023/03/21 03:39:52;;;;;;;10.07;6.03;;;11.00;99.90;;;;;;5053673;28;20699;-59
2023/03/21 03:42:24;;;;;;;13.77;7.18;;;11.00;99.90;;;;;;5053517;28;20163;-59
2023/03/21 03:44:50;;;;;;;12.43;6.78;;;11.00;99.90;;;;;;5053424;28;20175;-59
2023/03/21 03:47:40;;;;;;;13.10;6.45;;;11.00;99.90;;;;;;5053416;28;20215;-60
2023/03/21 03:50:24;;;;;;;12.05;6.45;;;11.00;99.90;;;;;;5053426;28;20513;-59
2023/03/21 03:53:19;;;;;;;9.95;6.45;;;11.00;99.90;;;;;;5053398;28;20175;-59
2023/03/21 03:55:46;;;;;;;10.43;6.30;;;11.00;99.90;;;;;;5047955;28;20234;-59
2023/03/21 03:58:17;;;;;;;11.38;6.00;;;11.00;99.90;;;;;;5053351;28;20175;-60
2023/03/21 04:00:44;;;;;;;11.40;6.18;;;11.00;99.90;;;;;;5053174;28;20629;-59
2023/03/21 04:03:09;;;;;;;10.75;6.07;;;11.00;99.90;;;;;;5053167;28;20179;-59
2023/03/21 04:05:35;;;;;;;11.80;6.15;;;11.00;99.90;;;;;;5053159;28;20167;-59
2023/03/21 04:08:01;;;;;;;10.38;5.78;;;11.00;99.90;;;;;;5053287;28;20222;-59
2023/03/21 04:10:27;;;;;;;9.75;6.18;;;11.00;99.90;;;;;;5053223;28;20254;-60
2023/03/21 04:12:53;;;;;;;11.50;6.32;;;11.10;99.90;;;;;;5052986;28;20187;-59
2023/03/21 04:15:19;;;;;;;11.95;6.07;;;11.10;99.90;;;;;;5053090;28;20179;-59
2023/03/21 04:17:45;;;;;;;11.55;6.13;;;11.10;99.90;;;;;;5052964;28;20222;-60
2023/03/21 04:20:11;;;;;;;11.18;6.15;;;11.10;99.90;;;;;;5052904;28;20576;-60
2023/03/21 04:22:37;;;;;;;9.65;5.85;;;11.10;99.90;;;;;;5052982;28;20172;-59
2023/03/21 04:25:04;;;;;;;9.82;5.93;;;11.10;99.90;;;;;;5053295;28;20183;-60
2023/03/21 04:27:31;;;;;;;12.07;5.80;;;11.10;99.90;;;;;;5052858;28;20218;-60
2023/03/21 04:29:57;;;;;;;10.50;5.57;;;11.10;99.90;;;;;;5052983;28;20184;-59
2023/03/21 04:32:23;;;;;;;11.23;5.43;;;11.00;99.90;;;;;;5052834;28;20232;-59
2023/03/21 04:34:53;;;;;;;12.77;6.47;;;11.10;99.90;;;;;;5052694;28;20637;-60
2023/03/21 04:37:24;;;;;;;9.60;5.70;;;11.10;99.90;;;;;;5052965;28;20182;-59
2023/03/21 04:39:50;;;;;;;11.75;5.47;;;11.10;99.90;;;;;;5052995;28;20171;-59
2023/03/21 04:42:17;;;;;;;9.32;5.68;;;11.10;99.90;;;;;;5052871;28;20175;-60
2023/03/21 04:44:47;;;;;;;9.75;5.50;;;11.10;99.90;;;;;;5052869;28;20175;-59
2023/03/21 04:47:14;;;;;;;11.07;5.53;;;11.20;99.90;;;;;;5052631;28;20203;-60
2023/03/21 04:49:41;;;;;;;11.65;6.15;;;11.20;99.90;;;;;;5052882;28;20191;-59
2023/03/21 04:52:07;;;;;;;10.65;6.45;;;11.20;99.90;;;;;;5052853;28;20175;-60
2023/03/21 04:54:33;;;;;;;24.92;7.38;;;11.10;99.90;;;;;;5052777;28;20616;-59
2023/03/21 04:56:58;;;;;;;63.83;10.40;;;11.10;99.90;;;;;;5052689;28;20225;-59
2023/03/21 04:59:24;;;;;;;40.45;8.77;;;11.10;99.90;;;;;;5052663;28;20575;-60
2023/03/21 05:01:50;;;;;;;39.20;9.07;;;11.00;99.90;;;;;;5056409;28;20167;-60
2023/03/21 05:04:18;;;;;;;63.40;10.90;;;11.10;99.90;;;;;;5056614;28;20179;-59
2023/03/21 05:06:45;;;;;;;64.70;11.85;;;11.10;99.90;;;;;;5056249;28;20580;-59
2023/03/21 05:09:12;;;;;;;26.58;8.23;;;11.10;99.90;;;;;;5055223;28;20202;-59
2023/03/21 05:11:42;;;;;;;36.03;8.48;;;11.10;99.90;;;;;;5056332;28;20171;-60
2023/03/21 05:14:10;;;;;;;50.78;10.50;;;11.00;99.90;;;;;;5056430;28;20518;-59
2023/03/21 05:16:47;;;;;;;32.00;9.25;;;11.00;99.90;;;;;;5055717;28;20179;-60
2023/03/21 05:19:13;;;;;;;24.05;7.85;;;11.00;99.90;;;;;;5056388;28;20587;-60
2023/03/21 05:21:42;;;;;;;16.70;6.88;;;11.00;99.90;;;;;;5056386;28;20309;-60
2023/03/21 05:24:11;;;;;;;15.20;7.50;;;11.00;99.90;;;;;;5055925;28;20608;-59
2023/03/21 05:26:38;;;;;;;13.77;7.57;;;11.00;99.90;;;;;;5056015;28;20533;-60
2023/03/21 05:29:04;;;;;;;12.95;7.53;;;11.00;99.90;;;;;;5055772;28;20213;-59
2023/03/21 05:31:30;;;;;;;18.10;8.32;;;11.00;99.90;;;;;;5056175;28;20625;-60
2023/03/21 05:33:56;;;;;;;12.77;7.47;;;10.90;99.90;;;;;;5056026;28;20203;-59
2023/03/21 05:36:21;;;;;;;21.42;8.13;;;11.00;99.90;;;;;;5056031;28;20277;-59
2023/03/21 05:38:47;;;;;;;14.98;7.68;;;10.90;99.90;;;;;;5055776;28;20202;-59
2023/03/21 05:41:14;;;;;;;21.05;8.55;;;10.90;99.90;;;;;;5055675;28;20182;-59
2023/03/21 05:43:40;;;;;;;15.68;7.82;;;10.90;99.90;;;;;;5055625;28;20195;-59
2023/03/21 05:46:07;;;;;;;12.20;7.30;;;10.90;99.90;;;;;;5055862;28;20626;-59
2023/03/21 05:48:33;;;;;;;16.08;8.68;;;10.90;99.90;;;;;;5055738;28;20715;-59
2023/03/21 05:50:59;;;;;;;12.23;8.10;;;11.00;99.90;;;;;;5055623;28;20219;-59
2023/03/21 05:53:25;;;;;;;14.85;7.93;;;10.90;99.90;;;;;;5055568;28;20262;-59
2023/03/21 05:55:51;;;;;;;14.00;8.05;;;10.80;99.90;;;;;;5055472;28;20168;-59
2023/03/21 05:58:17;;;;;;;15.18;8.18;;;10.90;99.90;;;;;;5055422;28;20629;-59
2023/03/21 06:00:42;;;;;;;11.57;7.90;;;10.80;99.90;;;;;;5055613;28;20167;-59
2023/03/21 06:03:08;;;;;;;12.38;7.47;;;10.70;99.90;;;;;;5055467;28;20175;-60
2023/03/21 06:05:34;;;;;;;12.73;8.13;;;10.70;99.90;;;;;;5055487;28;20628;-58
2023/03/21 06:08:00;;;;;;;13.40;7.72;;;10.70;99.90;;;;;;5055166;28;20280;-59
2023/03/21 06:10:26;;;;;;;14.10;8.10;;;10.70;99.90;;;;;;5055077;28;20175;-58
2023/03/21 06:12:51;;;;;;;15.23;8.45;;;10.60;99.90;;;;;;5055155;28;20628;-58
2023/03/21 06:15:17;;;;;;;14.00;8.40;;;10.60;99.90;;;;;;5055125;28;20171;-58
2023/03/21 06:17:43;;;;;;;13.15;9.00;;;10.70;99.90;;;;;;5055037;28;20317;-58
2023/03/21 06:20:10;;;;;;;14.48;8.43;;;10.70;99.90;;;;;;5054977;28;20635;-58
2023/03/21 06:22:36;;;;;;;17.65;8.90;;;10.80;99.90;;;;;;5054860;28;20183;-58
2023/03/21 06:25:03;;;;;;;15.60;10.10;;;10.80;99.90;;;;;;5055049;28;20258;-59
2023/03/21 06:27:28;;;;;;;17.73;9.10;;;10.80;99.90;;;;;;5054678;28;20218;-59
2023/03/21 06:29:54;;;;;;;19.70;9.82;;;10.90;99.90;;;;;;5054291;28;20179;-58
2023/03/21 06:32:20;;;;;;;13.15;9.52;;;10.80;99.90;;;;;;5054899;28;20214;-58
2023/03/21 06:34:46;;;;;;;15.70;9.80;;;10.80;99.90;;;;;;5054737;28;20175;-58
2023/03/21 06:37:11;;;;;;;16.88;10.05;;;10.80;99.90;;;;;;5054782;28;20258;-58
2023/03/21 06:39:37;;;;;;;17.10;10.48;;;10.80;99.90;;;;;;5054554;28;20179;-58
2023/03/21 06:42:03;;;;;;;16.27;9.90;;;10.80;99.90;;;;;;5054575;28;20186;-58
2023/03/21 06:44:28;;;;;;;15.65;9.60;;;10.80;99.90;;;;;;5054979;28;20273;-59
2023/03/21 06:46:54;;;;;;;14.43;10.00;;;10.80;99.90;;;;;;5054629;28;20172;-59
2023/03/21 06:49:20;;;;;;;15.40;9.60;;;10.90;99.90;;;;;;5054410;28;20168;-58
2023/03/21 06:51:45;;;;;;;16.38;9.65;;;10.90;99.90;;;;;;5054305;28;20191;-58
2023/03/21 06:54:13;;;;;;;12.90;9.60;;;10.80;99.90;;;;;;5054479;28;20651;-58
2023/03/21 06:56:39;;;;;;;14.23;9.88;;;10.90;99.90;;;;;;5054233;28;20187;-58
2023/03/21 06:59:05;;;;;;;15.57;10.32;;;10.90;99.90;;;;;;5054592;28;20186;-58
2023/03/21 07:01:30;;;;;;;14.25;8.95;;;10.90;99.90;;;;;;5054390;28;20700;-58
2023/03/21 07:03:57;;;;;;;16.55;10.63;;;11.00;99.90;;;;;;5054128;28;20175;-58
2023/03/21 07:06:27;;;;;;;14.35;9.50;;;11.00;99.90;;;;;;5054259;28;20183;-58
2023/03/21 07:08:54;;;;;;;16.42;9.52;;;11.10;99.90;;;;;;5054027;28;20230;-58
2023/03/21 07:11:21;;;;;;;17.55;10.10;;;11.10;99.90;;;;;;5053994;28;20184;-58
2023/03/21 07:13:47;;;;;;;17.35;9.35;;;11.10;99.90;;;;;;5054148;28;20167;-59
2023/03/21 07:16:14;;;;;;;13.85;8.80;;;11.00;99.90;;;;;;5054088;28;20177;-58
2023/03/21 07:18:40;;;;;;;14.80;9.27;;;11.10;99.90;;;;;;5053985;28;20266;-59
2023/03/21 07:21:06;;;;;;;13.98;8.82;;;11.10;99.90;;;;;;5054173;28;20230;-59
2023/03/21 07:23:32;;;;;;;17.10;9.05;;;11.10;99.90;;;;;;5052990;28;20302;-58
2023/03/21 07:25:57;;;;;;;18.60;8.75;;;11.20;99.90;;;;;;5053631;28;20174;-58
2023/03/21 07:28:23;;;;;;;10.60;8.23;;;11.20;99.90;;;;;;5053863;28;20221;-58
2023/03/21 07:30:58;;;;;;;11.15;8.18;;;11.30;99.90;;;;;;5053878;28;20186;-58
2023/03/21 07:33:24;;;;;;;14.20;8.25;;;11.30;99.90;;;;;;5054108;28;20171;-58
2023/03/21 07:35:56;;;;;;;12.70;8.10;;;11.20;99.90;;;;;;5053683;28;20655;-58
2023/03/21 07:38:22;;;;;;;14.27;8.10;;;11.30;99.90;;;;;;5053574;28;20187;-58
2023/03/21 07:40:49;;;;;;;11.77;8.13;;;11.20;99.90;;;;;;5053715;28;20175;-58
2023/03/21 07:43:16;;;;;;;13.88;7.93;;;11.30;99.90;;;;;;5053389;28;20172;-59
2023/03/21 07:45:42;;;;;;;10.52;7.30;;;11.30;99.90;;;;;;5053525;28;20179;-58
2023/03/21 07:48:11;;;;;;;11.95;7.35;;;11.40;99.90;;;;;;5053326;28;20199;-58
2023/03/21 07:50:38;;;;;;;12.00;7.43;;;11.40;99.90;;;;;;5053317;28;20517;-58
2023/03/21 07:53:03;;;;;;;13.23;6.95;;;11.30;99.90;;;;;;5053186;28;20632;-59
2023/03/21 07:55:29;;;;;;;11.88;7.20;;;11.30;99.90;;;;;;5053426;28;20207;-58
2023/03/21 07:57:55;;;;;;;11.60;7.28;;;11.30;99.90;;;;;;5053452;28;20643;-59
2023/03/21 08:00:24;;;;;;;12.82;7.40;;;11.40;99.90;;;;;;5053272;28;20639;-58
2023/03/21 08:02:53;;;;;;;12.52;7.03;;;11.40;99.90;;;;;;5053119;28;20621;-58
2023/03/21 08:05:24;;;;;;;8.55;6.93;;;11.40;99.90;;;;;;5053158;28;20257;-58
2023/03/21 08:07:50;;;;;;;12.00;7.07;;;11.50;99.90;;;;;;5053018;28;20195;-58
2023/03/21 08:10:17;;;;;;;11.30;6.55;;;11.60;99.90;;;;;;5053272;28;20171;-58
2023/03/21 08:12:44;;;;;;;11.70;6.32;;;11.60;99.90;;;;;;5053152;28;20179;-59
2023/03/21 08:15:11;;;;;;;8.07;6.13;;;11.70;99.90;;;;;;5053075;28;20258;-58
2023/03/21 08:17:38;;;;;;;10.15;6.20;;;11.60;99.90;;;;;;5052962;28;20183;-58
2023/03/21 08:20:10;;;;;;;9.63;5.63;;;11.60;99.90;;;;;;5052890;28;20575;-58
2023/03/21 08:22:37;;;;;;;10.95;5.68;;;11.70;99.90;;;;;;5053076;28;20604;-58
2023/03/21 08:25:07;;;;;;;8.98;5.68;;;11.80;99.90;;;;;;5053189;28;20171;-58
2023/03/21 08:27:33;;;;;;;8.80;4.68;;;11.80;99.90;;;;;;5052968;28;20265;-58
2023/03/21 08:30:00;;;;;;;7.78;4.80;;;11.80;99.90;;;;;;5052868;28;20175;-58
2023/03/21 08:32:30;;;;;;;8.07;4.78;;;12.00;99.90;;;;;;5052976;28;20182;-58
2023/03/21 08:35:00;;;;;;;21.98;7.07;;;12.00;99.90;;;;;;5053618;28;20636;-59
2023/03/21 08:37:27;;;;;;;8.65;4.90;;;12.20;99.90;;;;;;5057214;28;20623;-58
2023/03/21 08:39:53;;;;;;;9.77;4.95;;;12.30;99.90;;;;;;5056929;28;20179;-58
2023/03/21 08:42:19;;;;;;;9.75;4.90;;;12.30;99.90;;;;;;5056859;28;20172;-58
2023/03/21 08:44:45;;;;;;;8.38;4.88;;;12.30;99.90;;;;;;5056778;28;20680;-59
2023/03/21 08:47:11;;;;;;;9.55;5.20;;;12.50;99.90;;;;;;5056589;28;20290;-59
2023/03/21 08:49:37;;;;;;;6.53;4.55;;;12.60;99.90;;;;;;5057126;28;20612;-58
2023/03/21 08:52:03;;;;;;;9.98;4.82;;;12.70;99.90;;;;;;5056613;28;20172;-58
2023/03/21 08:54:29;;;;;;;10.93;5.07;;;12.80;99.90;;;;;;5056785;28;20175;-58
2023/03/21 08:56:55;;;;;;;7.97;5.20;;;12.80;99.90;;;;;;5056699;28;20655;-58
2023/03/21 08:59:20;;;;;;;7.70;4.57;;;12.90;99.90;;;;;;5056742;28;20528;-58
2023/03/21 09:01:46;;;;;;;11.85;5.25;;;13.10;99.90;;;;;;5056476;28;20538;-59
2023/03/21 09:04:12;;;;;;;7.82;4.57;;;13.20;99.90;;;;;;5056368;28;20181;-59
2023/03/21 09:06:47;;;;;;;10.02;4.40;;;13.30;99.90;;;;;;5056549;28;20509;-58
2023/03/21 09:09:14;;;;;;;6.75;4.28;;;13.40;99.90;;;;;;5056601;28;20229;-58
2023/03/21 09:11:40;;;;;;;6.65;4.55;;;13.40;99.90;;;;;;5056330;28;20629;-58
2023/03/21 09:14:05;;;;;;;9.00;5.10;;;13.40;99.90;;;;;;5056180;28;20179;-58
2023/03/21 09:16:32;;;;;;;9.82;4.70;;;13.30;99.90;;;;;;5056251;28;20182;-58
2023/03/21 09:18:58;;;;;;;9.68;4.45;;;13.20;99.90;;;;;;5056214;28;20403;-58
2023/03/21 09:21:26;;;;;;;8.27;4.22;;;13.30;99.90;;;;;;5056307;28;20187;-58
2023/03/21 09:23:54;;;;;;;8.73;4.28;;;13.40;99.90;;;;;;5056083;28;20238;-59
2023/03/21 09:26:22;;;;;;;8.13;4.78;;;13.40;99.90;;;;;;5056228;28;20190;-58
2023/03/21 09:28:48;;;;;;;8.45;4.32;;;13.30;99.90;;;;;;5055840;28;20207;-58
2023/03/21 09:31:20;;;;;;;8.45;4.43;;;13.30;99.90;;;;;;5055747;28;20171;-58
2023/03/21 09:33:46;;;;;;;6.63;4.47;;;13.30;99.90;;;;;;5055972;28;20497;-58
2023/03/21 09:36:17;;;;;;;10.30;4.60;;;13.40;99.90;;;;;;5056004;28;20183;-58
2023/03/21 09:38:44;;;;;;;10.07;4.45;;;13.40;99.90;;;;;;5056132;28;20659;-59
2023/03/21 09:41:26;;;;;;;8.35;4.60;;;13.60;99.90;;;;;;5055756;28;20498;-58
2023/03/21 09:44:16;;;;;;;7.28;4.45;;;13.50;99.90;;;;;;5055870;28;20591;-58
2023/03/21 09:47:01;;;;;;;9.40;4.70;;;13.50;99.90;;;;;;5055366;28;20202;-58
2023/03/21 09:49:35;;;;;;;9.05;4.68;;;13.40;99.90;;;;;;5055675;28;20191;-58
2023/03/21 09:52:24;;;;;;;9.75;4.78;;;13.60;99.90;;;;;;5055512;28;20171;-58
2023/03/21 09:54:51;;;;;;;8.02;4.18;;;13.50;99.90;;;;;;5048102;28;20179;-58
2023/03/21 09:57:22;;;;;;;10.52;4.70;;;13.50;99.90;;;;;;5055408;28;20175;-58
2023/03/21 09:59:52;;;;;;;7.53;4.57;;;13.50;99.90;;;;;;5055482;28;20182;-58
2023/03/21 10:02:38;;;;;;;9.05;5.03;;;13.60;99.90;;;;;;5055777;28;20214;-58
2023/03/21 10:05:17;;;;;;;6.50;4.20;;;13.80;99.90;;;;;;5055428;28;20581;-58
2023/03/21 10:07:51;;;;;;;6.65;4.15;;;13.80;99.90;;;;;;5055377;28;20680;-58
2023/03/21 10:10:22;;;;;;;8.48;4.53;;;13.90;99.90;;;;;;5055425;28;20171;-58
2023/03/21 10:12:51;;;;;;;7.15;4.63;;;14.10;99.90;;;;;;5055176;28;20179;-58
2023/03/21 10:15:19;;;;;;;7.80;4.30;;;14.00;99.90;;;;;;5055384;28;20167;-58
2023/03/21 10:17:53;;;;;;;8.30;4.72;;;14.00;99.90;;;;;;5055235;28;20179;-58
2023/03/21 10:20:22;;;;;;;8.00;4.28;;;14.10;99.90;;;;;;5055109;28;20214;-58
2023/03/21 10:22:52;;;;;;;7.47;4.25;;;14.10;99.90;;;;;;5054880;28;20230;-58
2023/03/21 10:25:45;;;;;;;7.30;4.18;;;13.90;99.90;;;;;;5054906;28;20233;-58
2023/03/21 10:28:21;;;;;;;8.35;4.55;;;13.70;99.90;;;;;;5038685;28;20226;-58
2023/03/21 10:30:53;;;;;;;9.05;4.38;;;13.80;99.90;;;;;;5055050;28;20258;-58
2023/03/21 10:33:24;;;;;;;7.53;4.25;;;13.80;99.90;;;;;;5054926;28;20172;-58
2023/03/21 10:35:54;;;;;;;9.13;4.47;;;13.80;99.90;;;;;;5054752;28;20182;-58
2023/03/21 10:38:23;;;;;;;5.53;3.60;;;13.80;99.90;;;;;;5054906;28;20179;-58
2023/03/21 10:40:48;;;;;;;9.20;4.28;;;13.70;99.90;;;;;;5054840;28;20179;-58
2023/03/21 10:43:34;;;;;;;6.25;3.90;;;13.80;99.90;;;;;;5054709;28;20242;-58
2023/03/21 10:46:26;;;;;;;6.68;3.72;;;13.80;99.90;;;;;;5054590;28;20720;-58
2023/03/21 10:48:52;;;;;;;6.80;4.05;;;13.80;99.90;;;;;;5054526;28;20207;-58
2023/03/21 10:51:26;;;;;;;7.82;4.15;;;13.90;99.90;;;;;;5054591;28;20633;-58
2023/03/21 10:53:56;;;;;;;8.35;4.05;;;14.00;99.90;;;;;;5054559;28;20202;-58
2023/03/21 10:56:28;;;;;;;9.35;4.70;;;14.00;99.90;;;;;;5054426;28;20171;-58
2023/03/21 10:58:57;;;;;;;6.78;4.30;;;13.70;99.90;;;;;;5053351;28;20194;-58
2023/03/21 11:01:36;;;;;;;11.95;4.47;;;13.70;99.90;;;;;;5054302;28;20179;-58
2023/03/21 11:04:16;;;;;;;7.53;3.83;;;13.70;99.90;;;;;;5054354;28;20643;-58
2023/03/21 11:06:49;;;;;;;7.75;4.18;;;13.80;99.90;;;;;;5054100;28;20167;-58
2023/03/21 11:09:20;;;;;;;6.43;4.25;;;13.70;99.90;;;;;;5053903;28;20253;-58
2023/03/21 11:12:01;;;;;;;6.22;4.30;;;13.80;99.90;;;;;;5054223;28;20574;-58
2023/03/21 11:14:43;;;;;;;8.77;4.45;;;13.80;99.90;;;;;;5054121;28;20668;-57
2023/03/21 11:17:20;;;;;;;8.77;4.15;;;13.80;99.90;;;;;;5054132;28;20175;-57
2023/03/21 11:19:53;;;;;;;7.07;4.35;;;13.90;99.90;;;;;;5053796;28;20188;-59
2023/03/21 11:22:25;;;;;;;7.95;4.55;;;13.80;99.90;;;;;;5053986;28;20176;-58
2023/03/21 11:25:01;;;;;;;9.98;4.22;;;14.20;99.90;;;;;;5053881;28;20644;-58
2023/03/21 11:27:31;;;;;;;6.50;4.10;;;14.40;99.90;;;;;;5054230;28;20570;-58
2023/03/21 11:30:00;;;;;;;13.20;4.43;;;14.50;99.90;;;;;;5053636;28;20194;-58
2023/03/21 11:32:34;;;;;;;6.15;4.05;;;14.60;99.90;;;;;;5053868;28;20183;-58
2023/03/21 11:35:17;;;;;;;6.65;4.13;;;14.70;99.90;;;;;;5053554;28;20179;-58
2023/03/21 11:37:45;;;;;;;7.30;4.28;;;14.90;99.90;;;;;;5053724;28;20266;-58
2023/03/21 11:40:24;;;;;;;5.35;4.07;;;15.10;99.90;;;;;;5053478;28;20174;-58
2023/03/21 11:43:01;;;;;;;5.85;4.60;;;15.20;99.90;;;;;;5053684;28;20199;-58
2023/03/21 11:45:28;;;;;;;6.25;3.70;;;15.20;99.90;;;;;;5053673;28;20220;-57
2023/03/21 11:47:57;;;;;;;8.43;4.07;;;15.20;99.90;;;;;;5053379;28;20202;-58
2023/03/21 11:50:33;;;;;;;7.40;3.97;;;15.20;99.90;;;;;;5053641;28;20248;-58
2023/03/21 11:53:10;;;;;;;11.50;4.53;;;15.30;99.90;;;;;;5053262;28;20182;-58
2023/03/21 11:56:13;;;;;;;5.93;4.40;;;15.10;99.90;;;;;;5053492;28;20253;-58
2023/03/21 11:58:57;;;;;;;14.23;4.90;;;15.30;99.90;;;;;;5053266;28;20186;-58
2023/03/21 12:01:23;;;;;;;7.82;4.20;;;15.40;99.90;;;;;;5053099;28;20193;-58
2023/03/21 12:03:57;;;;;;;6.70;4.35;;;15.50;99.90;;;;;;5053381;28;20171;-58
2023/03/21 12:07:04;;;;;;;12.20;4.40;;;15.50;99.90;;;;;;5053196;28;20167;-58
2023/03/21 12:09:43;;;;;;;5.03;3.72;;;15.60;99.90;;;;;;5052963;28;20179;-58
2023/03/21 12:12:41;;;;;;;10.93;4.45;;;15.80;99.90;;;;;;5053208;28;20172;-58
2023/03/21 12:15:15;;;;;;;6.53;4.15;;;16.00;99.90;;;;;;5053095;28;20178;-58
2023/03/21 12:18:05;;;;;;;7.90;4.47;;;16.10;99.90;;;;;;5053103;28;20175;-58
2023/03/21 12:20:46;;;;;;;10.15;4.22;;;16.30;99.90;;;;;;5052996;28;20533;-58
2023/03/21 12:23:25;;;;;;;6.82;3.78;;;16.20;99.90;;;;;;5052885;28;20281;-58
2023/03/21 12:26:22;;;;;;;7.38;4.05;;;15.90;99.90;;;;;;5053041;28;20167;-58
2023/03/21 12:29:18;;;;;;;6.57;3.72;;;15.90;99.90;;;;;;5052983;28;20203;-58
2023/03/21 12:32:16;;;;;;;10.25;4.47;;;16.10;99.90;;;;;;5049423;28;20554;-58
2023/03/21 12:34:51;;;;;;;7.43;4.57;;;16.20;99.90;;;;;;5029812;28;20191;-58
2023/03/21 12:37:27;;;;;;;7.95;3.85;;;16.20;99.90;;;;;;5052997;28;20711;-58
2023/03/21 12:40:00;;;;;;;11.07;4.22;;;16.20;99.90;;;;;;5052991;28;20182;-58
2023/03/21 12:43:27;;;;;;;6.30;3.58;;;16.20;99.90;;;;;;5053012;28;20167;-58
2023/03/21 12:45:58;;;;;;;6.13;3.67;;;16.30;99.90;;;;;;5010879;28;20333;-58
2023/03/21 12:48:44;;;;;;;4.90;3.88;;;15.80;99.90;;;;;;5011034;28;20287;-58
2023/03/21 12:51:18;;;;;;;7.35;4.00;;;15.80;99.90;;;;;;5044154;28;20191;-58
2023/03/21 12:54:04;;;;;;;6.00;3.55;;;15.80;99.90;;;;;;5052906;28;20250;-58
2023/03/21 12:56:52;;;;;;;5.45;4.28;;;15.80;99.90;;;;;;5052712;28;20270;-58
2023/03/21 12:59:30;;;;;;;6.53;4.07;;;15.60;99.90;;;;;;5050900;28;20541;-58
2023/03/21 13:02:01;;;;;;;8.82;4.10;;;15.60;99.90;;;;;;5052564;28;20176;-58